Time;durP1;ratioP1;P1;durP2;ratioP2;P2;SDS_P1;SDS_P2;PMS_P1;PMS_P2;Temp;Humidity;BMP_temperature;BMP_pressure;BME280_temperature;BME280_humidity;BME280_pressure;Samples;Min_cycle;Max_cycle;Signal;HPM_P1;HPM_P2
2022/07/04 00:01:02;;;;;;;1.95;0.40;;;23.60;59.10;;;;;;4494170;31;20129;-68
2022/07/04 00:03:28;;;;;;;1.50;0.60;;;23.60;59.10;;;;;;4494339;31;20367;-68
2022/07/04 00:05:53;;;;;;;1.00;0.52;;;23.60;59.00;;;;;;4494099;31;20143;-68
2022/07/04 00:08:19;;;;;;;0.70;0.50;;;23.60;59.10;;;;;;4494188;31;20101;-68
2022/07/04 00:10:45;;;;;;;1.17;0.40;;;23.60;59.10;;;;;;4494097;31;20069;-67
2022/07/04 00:13:11;;;;;;;1.25;0.40;;;23.60;59.10;;;;;;4494038;31;20073;-68
2022/07/04 00:15:37;;;;;;;1.95;0.20;;;23.60;59.10;;;;;;4494397;31;20223;-68
2022/07/04 00:18:02;;;;;;;0.93;0.50;;;23.60;59.10;;;;;;4492924;31;20411;-67
2022/07/04 00:20:28;;;;;;;0.75;0.43;;;23.50;59.00;;;;;;4493931;31;20187;-68
2022/07/04 00:22:54;;;;;;;1.30;0.40;;;23.50;59.10;;;;;;4493633;31;20065;-68
2022/07/04 00:25:20;;;;;;;0.70;0.30;;;23.60;59.10;;;;;;4493880;31;20116;-67
2022/07/04 00:27:46;;;;;;;0.43;0.40;;;23.50;59.10;;;;;;4494022;31;20077;-68
2022/07/04 00:30:12;;;;;;;2.08;0.55;;;23.50;59.10;;;;;;4493608;31;20173;-68
2022/07/04 00:32:38;;;;;;;1.42;0.30;;;23.50;59.10;;;;;;4493832;31;20207;-67
2022/07/04 00:35:05;;;;;;;0.65;0.30;;;23.50;59.10;;;;;;4493711;31;20213;-67
2022/07/04 00:37:31;;;;;;;1.25;0.55;;;23.50;59.10;;;;;;4493656;31;20077;-68
2022/07/04 00:39:57;;;;;;;1.20;0.30;;;23.50;59.10;;;;;;4493990;31;20220;-67
2022/07/04 00:42:23;;;;;;;0.75;0.30;;;23.50;59.10;;;;;;4493565;31;20128;-68
2022/07/04 00:44:49;;;;;;;1.40;0.40;;;23.50;59.10;;;;;;4493846;31;20092;-68
2022/07/04 00:47:15;;;;;;;0.82;0.40;;;23.50;59.10;;;;;;4493309;31;20492;-68
2022/07/04 00:49:41;;;;;;;0.77;0.30;;;23.50;59.10;;;;;;4493690;31;20092;-67
2022/07/04 00:52:07;;;;;;;0.60;0.25;;;23.50;59.10;;;;;;4492438;31;20069;-68
2022/07/04 00:54:33;;;;;;;1.17;0.22;;;23.40;59.00;;;;;;4493169;31;20194;-68
2022/07/04 00:57:00;;;;;;;0.90;0.50;;;23.50;59.10;;;;;;4493023;31;20418;-68
2022/07/04 00:59:27;;;;;;;0.90;0.43;;;23.50;59.10;;;;;;4493227;31;20632;-68
2022/07/04 01:01:53;;;;;;;1.10;0.40;;;23.50;59.10;;;;;;4493309;31;20093;-68
2022/07/04 01:04:19;;;;;;;1.05;0.35;;;23.50;59.10;;;;;;4493455;31;20065;-68
2022/07/04 01:06:45;;;;;;;1.17;0.30;;;23.50;59.10;;;;;;4493021;31;20084;-68
2022/07/04 01:09:11;;;;;;;1.25;0.40;;;23.50;59.10;;;;;;4493162;31;20123;-68
2022/07/04 01:11:37;;;;;;;1.73;0.30;;;23.40;59.10;;;;;;4493116;31;20509;-68
2022/07/04 01:14:05;;;;;;;0.63;0.28;;;23.40;59.10;;;;;;4492823;31;20065;-68
2022/07/04 01:16:31;;;;;;;0.88;0.20;;;23.40;59.10;;;;;;4492787;31;20096;-68
2022/07/04 01:18:57;;;;;;;0.40;0.30;;;23.40;59.10;;;;;;4493053;31;20061;-67
2022/07/04 01:21:22;;;;;;;1.02;0.30;;;23.40;59.10;;;;;;4492987;31;20079;-69
2022/07/04 01:23:48;;;;;;;1.15;0.30;;;23.40;59.10;;;;;;4492945;31;20065;-68
2022/07/04 01:26:14;;;;;;;0.85;0.40;;;23.40;59.10;;;;;;4492991;31;20089;-68
2022/07/04 01:28:40;;;;;;;1.35;0.40;;;23.40;59.10;;;;;;4493023;31;20115;-68
2022/07/04 01:31:06;;;;;;;0.85;0.40;;;23.40;59.10;;;;;;4492831;31;20073;-68
2022/07/04 01:33:33;;;;;;;1.02;0.45;;;23.40;59.10;;;;;;4492745;31;20092;-71
2022/07/04 01:35:59;;;;;;;1.23;0.40;;;23.40;59.10;;;;;;4492948;31;20089;-68
2022/07/04 01:38:25;;;;;;;0.70;0.20;;;23.40;59.20;;;;;;4491399;31;20077;-68
2022/07/04 01:40:51;;;;;;;1.73;0.45;;;23.40;59.20;;;;;;4491585;31;20536;-68
2022/07/04 01:43:18;;;;;;;0.73;0.40;;;23.40;59.20;;;;;;4492916;31;20107;-68
2022/07/04 01:45:44;;;;;;;0.73;0.22;;;23.30;59.10;;;;;;4492584;31;20202;-68
2022/07/04 01:48:11;;;;;;;1.65;0.40;;;23.40;59.20;;;;;;4492155;31;20101;-68
2022/07/04 01:50:38;;;;;;;1.33;0.40;;;23.40;59.10;;;;;;4492373;31;20091;-68
2022/07/04 01:53:05;;;;;;;0.63;0.30;;;23.40;59.20;;;;;;4492522;31;20481;-68
2022/07/04 01:55:31;;;;;;;1.85;0.30;;;23.40;59.10;;;;;;4492414;31;20081;-68
2022/07/04 01:57:58;;;;;;;0.47;0.30;;;23.30;59.10;;;;;;4491329;31;20085;-68
2022/07/04 02:03:09;;;;;;;0.60;0.40;;;23.30;59.10;;;;;;4493031;31;20081;-68
2022/07/04 02:05:37;;;;;;;1.38;0.28;;;23.30;59.10;;;;;;4492672;31;20143;-68
2022/07/04 02:08:08;;;;;;;0.32;0.30;;;23.30;59.00;;;;;;4492620;31;20092;-68
2022/07/04 02:10:34;;;;;;;0.52;0.20;;;23.30;59.10;;;;;;4492299;31;20081;-68
2022/07/04 02:13:03;;;;;;;2.58;0.40;;;23.30;59.10;;;;;;4491230;31;20093;-68
2022/07/04 02:15:36;;;;;;;0.82;0.30;;;23.30;59.00;;;;;;4491602;31;20118;-68
2022/07/04 02:18:03;;;;;;;0.50;0.38;;;23.30;59.00;;;;;;4491986;31;20081;-68
2022/07/04 02:20:30;;;;;;;0.20;0.20;;;23.30;59.00;;;;;;4492234;31;20191;-68
2022/07/04 02:22:56;;;;;;;2.30;0.30;;;23.30;59.00;;;;;;4492392;31;20096;-68
2022/07/04 02:25:22;;;;;;;0.82;0.70;;;23.30;59.00;;;;;;4492126;31;20136;-68
2022/07/04 02:27:48;;;;;;;0.85;0.30;;;23.20;59.00;;;;;;4492070;31;20492;-68
2022/07/04 02:30:14;;;;;;;1.20;0.40;;;23.30;59.00;;;;;;4492075;31;20077;-68
2022/07/04 02:32:40;;;;;;;0.50;0.20;;;23.20;58.90;;;;;;4491772;31;20592;-68
2022/07/04 02:35:07;;;;;;;0.80;0.30;;;23.20;59.00;;;;;;4492203;31;20099;-68
2022/07/04 02:37:32;;;;;;;1.33;0.52;;;23.20;59.00;;;;;;4491727;31;20123;-68
2022/07/04 02:39:58;;;;;;;0.88;0.40;;;23.20;59.00;;;;;;4490953;31;20211;-68
2022/07/04 02:42:28;;;;;;;1.15;0.40;;;23.20;59.00;;;;;;4491783;31;20101;-68
2022/07/04 02:44:54;;;;;;;0.35;0.30;;;23.20;58.90;;;;;;4492095;31;20540;-68
2022/07/04 02:47:20;;;;;;;0.85;0.20;;;23.20;58.90;;;;;;4491751;31;20519;-68
2022/07/04 02:49:46;;;;;;;0.95;0.50;;;23.20;59.00;;;;;;4492132;32;20075;-68
2022/07/04 02:52:11;;;;;;;0.68;0.40;;;23.20;59.90;;;;;;4492113;32;20490;-68
2022/07/04 02:54:37;;;;;;;1.10;0.28;;;23.10;58.90;;;;;;4491904;32;20072;-68
2022/07/04 02:57:03;;;;;;;0.40;0.20;;;23.20;58.90;;;;;;4491786;32;20061;-68
2022/07/04 02:59:29;;;;;;;0.90;0.30;;;23.10;58.80;;;;;;4491504;32;20079;-68
2022/07/04 03:01:55;;;;;;;0.50;0.30;;;23.10;59.70;;;;;;4491766;32;20061;-68
2022/07/04 03:04:20;;;;;;;0.45;0.30;;;23.10;58.80;;;;;;4491815;32;20077;-68
2022/07/04 03:06:46;;;;;;;0.50;0.30;;;23.10;58.80;;;;;;4490930;32;20074;-68
2022/07/04 03:09:12;;;;;;;0.60;0.40;;;23.10;58.80;;;;;;4492064;32;20477;-69
2022/07/04 03:11:38;;;;;;;0.60;0.30;;;23.10;58.70;;;;;;4490700;32;20069;-68
2022/07/04 03:14:04;;;;;;;0.60;0.30;;;23.10;58.70;;;;;;4491929;32;20282;-68
2022/07/04 03:16:29;;;;;;;1.10;0.30;;;23.10;59.70;;;;;;4491391;32;20403;-68
2022/07/04 03:18:55;;;;;;;0.75;0.30;;;23.10;58.70;;;;;;4491707;32;20166;-68
2022/07/04 03:21:21;;;;;;;0.60;0.20;;;23.10;58.70;;;;;;4490733;32;20219;-68
2022/07/04 03:23:57;;;;;;;0.60;0.30;;;23.10;58.70;;;;;;4490595;32;20080;-68
2022/07/04 03:26:27;;;;;;;0.70;0.40;;;23.10;58.70;;;;;;4491881;31;20207;-68
2022/07/04 03:28:53;;;;;;;0.73;0.30;;;23.10;58.80;;;;;;4494922;31;20121;-68
2022/07/04 03:31:19;;;;;;;0.20;0.20;;;23.10;58.70;;;;;;4494495;31;20085;-68
2022/07/04 03:33:45;;;;;;;0.28;0.20;;;23.00;58.70;;;;;;4494891;31;20088;-68
2022/07/04 03:36:11;;;;;;;1.25;0.38;;;23.10;58.80;;;;;;4494263;31;20123;-68
2022/07/04 03:38:37;;;;;;;0.30;0.10;;;23.10;58.80;;;;;;4494569;31;20207;-68
2022/07/04 03:41:03;;;;;;;0.35;0.28;;;23.10;58.80;;;;;;4494599;31;20380;-68
2022/07/04 03:43:29;;;;;;;0.55;0.20;;;23.10;58.80;;;;;;4494657;31;20158;-68
2022/07/04 03:45:55;;;;;;;0.52;0.25;;;23.00;58.70;;;;;;4494414;31;20439;-68
2022/07/04 03:48:21;;;;;;;0.45;0.22;;;23.00;58.70;;;;;;4494300;31;20081;-68
2022/07/04 03:50:47;;;;;;;0.77;0.40;;;23.00;58.70;;;;;;4493541;31;20069;-68
2022/07/04 03:53:13;;;;;;;0.50;0.20;;;23.00;58.70;;;;;;4494377;31;20096;-68
2022/07/04 03:55:39;;;;;;;0.52;0.20;;;23.00;58.70;;;;;;4494283;31;20116;-68
2022/07/04 03:58:05;;;;;;;0.63;0.30;;;23.00;58.80;;;;;;4492882;31;20214;-68
2022/07/04 04:00:31;;;;;;;1.05;0.20;;;23.00;58.80;;;;;;4493962;31;20120;-68
2022/07/04 04:02:58;;;;;;;0.22;0.20;;;23.00;58.80;;;;;;4494215;31;20069;-68
2022/07/04 04:05:30;;;;;;;0.90;0.30;;;23.00;58.80;;;;;;4494216;31;20061;-68
2022/07/04 04:08:01;;;;;;;0.75;0.20;;;23.00;58.80;;;;;;4479893;31;20077;-68
2022/07/04 04:10:30;;;;;;;0.38;0.30;;;23.00;58.80;;;;;;4494387;31;20105;-68
2022/07/04 04:12:57;;;;;;;0.52;0.28;;;22.90;58.70;;;;;;4494007;31;20089;-68
2022/07/04 04:15:23;;;;;;;0.70;0.25;;;23.00;58.80;;;;;;4494283;31;20219;-68
2022/07/04 04:17:49;;;;;;;1.35;0.30;;;22.90;58.80;;;;;;4494226;31;20224;-68
2022/07/04 04:20:15;;;;;;;0.52;0.20;;;22.90;58.80;;;;;;4492916;31;20414;-68
2022/07/04 04:22:41;;;;;;;0.82;0.30;;;23.00;58.80;;;;;;4494121;31;20101;-68
2022/07/04 04:25:07;;;;;;;0.47;0.28;;;22.90;58.70;;;;;;4494051;31;20219;-68
2022/07/04 04:27:33;;;;;;;0.50;0.30;;;22.90;58.80;;;;;;4494088;31;20413;-68
2022/07/04 04:29:59;;;;;;;0.55;0.30;;;22.90;58.70;;;;;;4493457;31;20073;-68
2022/07/04 04:32:25;;;;;;;0.73;0.20;;;22.90;58.70;;;;;;4493873;31;20124;-68
2022/07/04 04:34:51;;;;;;;1.92;0.32;;;22.90;58.70;;;;;;4492645;31;20543;-68
2022/07/04 04:37:16;;;;;;;0.30;0.28;;;22.90;58.70;;;;;;4493578;31;20084;-68
2022/07/04 04:39:42;;;;;;;0.30;0.20;;;22.90;58.70;;;;;;4493683;31;20151;-68
2022/07/04 04:42:08;;;;;;;1.05;0.20;;;22.90;58.70;;;;;;4493368;31;20080;-68
2022/07/04 04:44:34;;;;;;;0.30;0.20;;;22.90;58.70;;;;;;4493614;31;20520;-68
2022/07/04 04:47:01;;;;;;;0.60;0.20;;;22.90;58.70;;;;;;4493127;31;20150;-68
2022/07/04 04:49:27;;;;;;;0.32;0.20;;;22.90;58.70;;;;;;4493333;31;20167;-68
2022/07/04 04:51:52;;;;;;;0.28;0.10;;;22.90;58.70;;;;;;4493325;31;20085;-68
2022/07/04 04:54:18;;;;;;;0.47;0.10;;;22.90;58.70;;;;;;4493500;31;20065;-68
2022/07/04 04:56:44;;;;;;;0.20;0.13;;;22.90;58.80;;;;;;4492050;31;20497;-68
2022/07/04 04:59:10;;;;;;;0.57;0.20;;;22.90;58.80;;;;;;4493619;31;20084;-68
2022/07/04 05:01:35;;;;;;;0.30;0.20;;;22.90;58.70;;;;;;4493312;31;20069;-71
2022/07/04 05:04:01;;;;;;;0.80;0.20;;;22.80;58.70;;;;;;4493509;31;20194;-68
2022/07/04 05:06:27;;;;;;;0.43;0.20;;;22.90;58.80;;;;;;4493996;31;20463;-68
2022/07/04 05:08:53;;;;;;;0.50;0.25;;;22.90;58.80;;;;;;4492162;31;20222;-68
2022/07/04 05:11:19;;;;;;;0.40;0.30;;;22.80;58.70;;;;;;4492219;31;20142;-68
2022/07/04 05:13:45;;;;;;;0.38;0.13;;;22.80;58.70;;;;;;4493387;31;20129;-68
2022/07/04 05:16:11;;;;;;;0.52;0.30;;;22.80;58.70;;;;;;4493276;31;20108;-68
2022/07/04 05:18:37;;;;;;;0.20;0.20;;;22.90;58.80;;;;;;4493058;31;20154;-68
2022/07/04 05:21:03;;;;;;;0.20;0.20;;;22.80;58.70;;;;;;4493386;31;20080;-67
2022/07/04 05:23:28;;;;;;;0.85;0.20;;;22.90;58.80;;;;;;4492949;31;20411;-68
2022/07/04 05:25:54;;;;;;;0.20;0.15;;;22.80;58.70;;;;;;4492949;31;20069;-68
2022/07/04 05:28:20;;;;;;;0.32;0.10;;;22.80;58.70;;;;;;4492553;31;20089;-68
2022/07/04 05:30:46;;;;;;;0.70;0.22;;;22.80;58.70;;;;;;4493047;31;20070;-68
2022/07/04 05:33:12;;;;;;;0.45;0.17;;;22.90;58.80;;;;;;4492822;31;20446;-68
2022/07/04 05:35:37;;;;;;;0.60;0.25;;;22.80;58.70;;;;;;4491427;31;20084;-68
2022/07/04 05:38:03;;;;;;;0.85;0.28;;;22.80;58.70;;;;;;4492728;31;20206;-68
2022/07/04 05:40:29;;;;;;;0.55;0.20;;;22.80;58.70;;;;;;4492795;31;20073;-67
2022/07/04 05:42:56;;;;;;;0.32;0.28;;;22.80;58.70;;;;;;4492966;31;20402;-67
2022/07/04 05:45:22;;;;;;;0.40;0.25;;;22.80;58.70;;;;;;4492663;31;20092;-68
2022/07/04 05:47:49;;;;;;;0.55;0.20;;;22.90;58.80;;;;;;4492447;31;20096;-67
2022/07/04 05:50:15;;;;;;;0.60;0.30;;;22.80;58.70;;;;;;4491807;31;20065;-68
2022/07/04 05:52:41;;;;;;;0.38;0.30;;;22.90;58.80;;;;;;4492608;31;20644;-68
2022/07/04 05:55:08;;;;;;;0.13;0.10;;;22.80;58.70;;;;;;4492821;31;20081;-67
2022/07/04 05:57:34;;;;;;;1.20;0.28;;;22.90;58.80;;;;;;4492426;31;20092;-68
2022/07/04 06:00:01;;;;;;;0.32;0.15;;;22.90;58.80;;;;;;4492392;31;20174;-67
2022/07/04 06:02:26;;;;;;;0.65;0.28;;;22.90;58.80;;;;;;4492678;31;20592;-68
2022/07/04 06:04:52;;;;;;;0.57;0.13;;;22.90;58.80;;;;;;4492379;31;20073;-67
2022/07/04 06:07:18;;;;;;;0.30;0.20;;;22.90;58.80;;;;;;4492384;31;20177;-69
2022/07/04 06:09:45;;;;;;;0.70;0.40;;;22.90;58.80;;;;;;4492365;31;20065;-67
2022/07/04 06:12:10;;;;;;;0.60;0.40;;;22.90;58.90;;;;;;4492316;31;20267;-67
2022/07/04 06:14:36;;;;;;;0.82;0.30;;;22.90;59.10;;;;;;4492247;31;20077;-67
2022/07/04 06:17:02;;;;;;;1.08;0.50;;;22.90;59.20;;;;;;4477857;31;20077;-67
2022/07/04 06:19:28;;;;;;;2.38;0.70;;;22.90;59.40;;;;;;4492007;31;20179;-67
2022/07/04 06:21:54;;;;;;;4.82;0.50;;;23.00;59.50;;;;;;4492120;31;20210;-67
2022/07/04 06:24:20;;;;;;;5.68;0.77;;;23.00;59.50;;;;;;4492485;31;20073;-67
2022/07/04 06:26:46;;;;;;;2.80;0.80;;;23.10;59.70;;;;;;4492138;31;20132;-67
2022/07/04 06:29:12;;;;;;;3.60;0.75;;;23.10;59.70;;;;;;4492294;31;20065;-67
2022/07/04 06:31:38;;;;;;;2.45;0.95;;;23.10;59.70;;;;;;4492137;31;20198;-68
2022/07/04 06:36:48;;;;;;;3.67;1.00;;;23.20;59.80;;;;;;4492241;31;20649;-67
2022/07/04 06:39:14;;;;;;;2.97;0.85;;;23.20;59.80;;;;;;4492251;31;20069;-67
2022/07/04 06:41:40;;;;;;;3.78;0.90;;;23.20;59.80;;;;;;4490931;31;20465;-67
2022/07/04 06:44:05;;;;;;;2.55;0.70;;;23.30;60.00;;;;;;4490867;31;20100;-67
2022/07/04 06:46:31;;;;;;;3.33;1.17;;;23.20;59.90;;;;;;4491906;31;20120;-67
2022/07/04 06:48:58;;;;;;;4.97;1.33;;;23.20;59.90;;;;;;4491715;31;20398;-67
2022/07/04 06:51:24;;;;;;;4.68;0.98;;;23.30;59.90;;;;;;4491888;32;20479;-67
2022/07/04 06:53:50;;;;;;;2.00;0.70;;;23.30;59.90;;;;;;4491866;32;20084;-67
2022/07/04 06:56:17;;;;;;;3.60;1.20;;;23.30;59.80;;;;;;4492092;32;20088;-66
2022/07/04 06:58:43;;;;;;;2.85;1.00;;;23.30;59.80;;;;;;4491904;32;20069;-67
2022/07/04 07:01:08;;;;;;;3.58;1.05;;;23.40;59.90;;;;;;4493918;31;20541;-67
2022/07/04 07:03:35;;;;;;;2.85;0.80;;;23.40;59.90;;;;;;4495222;31;20092;-67
2022/07/04 07:06:02;;;;;;;5.15;1.10;;;23.40;60.70;;;;;;4495183;31;20268;-67
2022/07/04 07:08:29;;;;;;;4.63;1.10;;;23.40;59.90;;;;;;4495205;31;20092;-67
2022/07/04 07:10:56;;;;;;;2.72;0.82;;;23.40;59.90;;;;;;4494628;31;20085;-67
2022/07/04 07:13:22;;;;;;;3.85;1.08;;;23.50;59.90;;;;;;4495099;31;20157;-67
2022/07/04 07:15:48;;;;;;;3.20;0.93;;;23.60;59.90;;;;;;4495009;31;20215;-67
2022/07/04 07:18:14;;;;;;;6.93;1.27;;;23.50;59.80;;;;;;4494743;31;20166;-67
2022/07/04 07:20:40;;;;;;;5.60;1.15;;;23.60;59.90;;;;;;4494762;31;20391;-67
2022/07/04 07:23:06;;;;;;;1.73;0.80;;;23.60;59.90;;;;;;4494840;31;20073;-67
2022/07/04 07:25:32;;;;;;;2.85;1.10;;;23.60;59.90;;;;;;4494686;31;20227;-67
2022/07/04 07:27:58;;;;;;;2.78;0.85;;;23.60;59.80;;;;;;4494373;31;20061;-69
2022/07/04 07:30:24;;;;;;;4.78;0.80;;;23.60;59.70;;;;;;4494360;31;20069;-67
2022/07/04 07:32:50;;;;;;;1.92;0.90;;;23.60;59.70;;;;;;4494621;31;20085;-67
2022/07/04 07:35:15;;;;;;;1.90;0.90;;;23.60;59.70;;;;;;4494334;31;20132;-67
2022/07/04 07:37:41;;;;;;;2.95;0.70;;;23.60;59.70;;;;;;4494520;31;20109;-67
2022/07/04 07:40:08;;;;;;;2.80;1.05;;;23.70;59.70;;;;;;4494521;31;20160;-67
2022/07/04 07:42:34;;;;;;;3.58;0.80;;;23.60;59.60;;;;;;4494492;31;20585;-67
2022/07/04 07:45:00;;;;;;;1.58;0.75;;;23.70;59.80;;;;;;4494462;31;20090;-67
2022/07/04 07:47:26;;;;;;;2.33;0.75;;;23.60;59.70;;;;;;4494026;31;20081;-67
2022/07/04 07:49:53;;;;;;;1.58;0.70;;;23.70;59.70;;;;;;4494417;31;20104;-67
2022/07/04 07:52:19;;;;;;;2.45;0.93;;;23.60;59.60;;;;;;4494613;31;20088;-67
2022/07/04 07:54:45;;;;;;;1.60;0.70;;;23.60;59.60;;;;;;4494051;31;20069;-67
2022/07/04 07:57:11;;;;;;;2.15;1.00;;;23.60;59.60;;;;;;4494533;31;20438;-67
2022/07/04 07:59:37;;;;;;;2.22;0.65;;;23.60;59.60;;;;;;4493909;31;20081;-69
2022/07/04 08:02:03;;;;;;;3.05;1.00;;;23.60;59.60;;;;;;4493966;31;20088;-67
2022/07/04 08:04:35;;;;;;;2.20;0.70;;;23.60;59.60;;;;;;4494210;31;20093;-67
2022/07/04 08:07:06;;;;;;;2.53;0.75;;;23.50;59.50;;;;;;4494515;31;20554;-67
2022/07/04 08:09:32;;;;;;;5.32;0.98;;;23.50;59.50;;;;;;4494406;31;20120;-68
2022/07/04 08:11:59;;;;;;;5.10;0.98;;;23.50;59.60;;;;;;4493499;31;20085;-68
2022/07/04 08:14:26;;;;;;;6.57;0.80;;;23.50;59.60;;;;;;4492829;31;20422;-67
2022/07/04 08:16:52;;;;;;;4.05;0.95;;;23.50;59.70;;;;;;4494176;31;20132;-67
2022/07/04 08:19:18;;;;;;;4.93;0.98;;;23.40;59.60;;;;;;4493520;31;20066;-67
2022/07/04 08:21:46;;;;;;;1.63;0.60;;;23.40;59.80;;;;;;4494055;31;20069;-68
2022/07/04 08:24:14;;;;;;;3.40;1.00;;;23.40;59.70;;;;;;4493841;31;20510;-67
2022/07/04 08:26:39;;;;;;;4.18;0.90;;;23.40;59.80;;;;;;4493787;31;20154;-68
2022/07/04 08:29:05;;;;;;;1.63;0.60;;;23.40;59.70;;;;;;4493304;31;20085;-67
2022/07/04 08:31:31;;;;;;;2.15;0.70;;;23.50;59.70;;;;;;4493835;31;20109;-67
2022/07/04 08:33:57;;;;;;;2.65;0.65;;;23.50;59.60;;;;;;4493742;31;20094;-67
2022/07/04 08:36:23;;;;;;;5.72;0.77;;;23.50;59.50;;;;;;4493651;31;20470;-67
2022/07/04 08:38:49;;;;;;;2.88;0.70;;;23.60;59.60;;;;;;4492624;31;20069;-76
2022/07/04 08:41:16;;;;;;;2.00;0.80;;;23.60;59.60;;;;;;4493761;31;20215;-67
2022/07/04 08:43:42;;;;;;;3.20;0.90;;;23.60;59.40;;;;;;4493867;31;20190;-67
2022/07/04 08:46:10;;;;;;;2.53;0.82;;;23.70;59.50;;;;;;4493849;31;20081;-67
2022/07/04 08:48:38;;;;;;;6.78;0.90;;;23.70;59.30;;;;;;4493377;31;20174;-67
2022/07/04 08:51:21;;;;;;;2.72;0.90;;;23.70;59.00;;;;;;4493468;31;20100;-69
2022/07/04 08:53:55;;;;;;;3.08;0.90;;;23.80;58.70;;;;;;4493771;31;20073;-67
2022/07/04 08:59:07;;;;;;;4.25;1.10;;;23.80;58.20;;;;;;4492269;31;20529;-67
2022/07/04 09:01:33;;;;;;;4.22;1.05;;;23.90;58.10;;;;;;4493336;31;20089;-67
2022/07/04 09:04:01;;;;;;;1.80;0.70;;;23.90;57.90;;;;;;4493363;31;20073;-67
2022/07/04 09:06:28;;;;;;;1.75;0.70;;;23.90;57.60;;;;;;4491927;31;20222;-68
2022/07/04 09:08:54;;;;;;;1.80;0.80;;;23.90;57.30;;;;;;4492981;31;20099;-67
2022/07/04 09:11:21;;;;;;;5.18;0.90;;;23.90;57.30;;;;;;4492905;31;20077;-67
2022/07/04 09:13:48;;;;;;;1.65;0.70;;;23.90;57.20;;;;;;4492896;31;20097;-67
2022/07/04 09:16:14;;;;;;;4.55;1.05;;;23.80;57.10;;;;;;4492743;31;20083;-70
2022/07/04 09:18:40;;;;;;;2.10;0.95;;;23.80;56.90;;;;;;4493095;31;20069;-71
2022/07/04 09:21:08;;;;;;;3.13;0.80;;;23.80;56.80;;;;;;4493296;31;20069;-67
2022/07/04 09:23:40;;;;;;;2.47;0.70;;;23.80;56.70;;;;;;4492110;31;20214;-67
2022/07/04 09:26:08;;;;;;;2.60;0.80;;;23.80;56.50;;;;;;4491972;31;20085;-67
2022/07/04 09:28:34;;;;;;;3.10;0.70;;;23.70;56.40;;;;;;4492879;31;20081;-67
2022/07/04 09:31:00;;;;;;;1.75;0.50;;;23.70;56.40;;;;;;4492750;31;20559;-67
2022/07/04 09:33:45;;;;;;;2.47;0.65;;;23.70;56.40;;;;;;4492901;31;20513;-67
2022/07/04 09:36:12;;;;;;;3.17;0.52;;;23.70;56.30;;;;;;4492760;31;20077;-67
2022/07/04 09:38:38;;;;;;;4.20;0.60;;;23.60;56.20;;;;;;4492772;31;20443;-67
2022/07/04 09:44:00;;;;;;;3.42;0.95;;;23.60;56.00;;;;;;4493024;31;20077;-67
2022/07/04 09:46:26;;;;;;;1.52;0.70;;;23.60;55.90;;;;;;4492942;31;20107;-67
2022/07/04 09:48:52;;;;;;;2.50;0.55;;;23.50;55.90;;;;;;4492479;31;20546;-67
2022/07/04 09:51:38;;;;;;;2.30;0.75;;;23.50;55.90;;;;;;4492592;31;20457;-67
2022/07/04 09:54:34;;;;;;;3.45;0.65;;;23.50;55.90;;;;;;4492539;31;20073;-67
2022/07/04 09:57:02;;;;;;;5.35;1.50;;;23.60;55.80;;;;;;4492532;31;20069;-67
2022/07/04 09:59:30;;;;;;;1.00;0.60;;;23.60;55.80;;;;;;4492124;31;20123;-67
2022/07/04 10:02:07;;;;;;;1.30;0.60;;;23.60;55.90;;;;;;4492631;31;20173;-67
2022/07/04 10:04:47;;;;;;;3.47;1.00;;;23.60;55.70;;;;;;4492413;31;20100;-67
2022/07/04 10:07:30;;;;;;;1.67;0.63;;;23.60;55.50;;;;;;4492357;31;20099;-68
2022/07/04 10:09:56;;;;;;;2.60;0.65;;;23.60;55.20;;;;;;4492475;31;20085;-67
2022/07/04 10:12:28;;;;;;;1.40;0.60;;;23.70;55.30;;;;;;4492313;31;20253;-67
2022/07/04 10:14:55;;;;;;;4.80;1.10;;;23.70;55.30;;;;;;4492251;31;20518;-67
2022/07/04 10:17:22;;;;;;;3.20;0.73;;;23.70;55.20;;;;;;4492184;31;20702;-67
2022/07/04 10:19:51;;;;;;;1.85;0.70;;;23.70;55.30;;;;;;4492283;31;20143;-67
2022/07/04 10:22:19;;;;;;;3.60;0.60;;;23.80;55.40;;;;;;4492396;31;20081;-67
2022/07/04 10:24:44;;;;;;;2.95;0.88;;;23.80;55.20;;;;;;4492154;31;20211;-68
2022/07/04 10:27:11;;;;;;;1.67;0.60;;;23.90;55.20;;;;;;4492156;31;20083;-67
2022/07/04 10:29:37;;;;;;;2.35;0.68;;;23.90;55.20;;;;;;4492114;31;20418;-67
2022/07/04 10:32:06;;;;;;;1.63;0.55;;;23.90;55.20;;;;;;4492056;31;20483;-67
2022/07/04 10:34:39;;;;;;;1.48;0.80;;;23.90;55.20;;;;;;4492036;31;20129;-67
2022/07/04 10:37:05;;;;;;;;;;;23.90;55.30;;;;;;4491308;31;20065;-67
2022/07/04 10:39:32;;;;;;;3.35;0.68;;;23.90;55.40;;;;;;4491831;31;20210;-67
2022/07/04 10:41:59;;;;;;;1.63;0.50;;;23.90;55.40;;;;;;4492216;31;20085;-67
2022/07/04 10:44:26;;;;;;;6.35;0.85;;;23.90;55.20;;;;;;4492174;31;20486;-67
2022/07/04 10:46:56;;;;;;;3.17;0.82;;;23.90;55.10;;;;;;4491447;31;20113;-67
2022/07/04 10:49:28;;;;;;;2.45;0.90;;;23.80;54.90;;;;;;4491674;31;20084;-67
2022/07/04 10:52:07;;;;;;;13.13;1.42;;;23.80;54.90;;;;;;4492219;31;20170;-67
2022/07/04 10:54:35;;;;;;;5.28;0.77;;;23.80;54.90;;;;;;4492217;32;20069;-68
2022/07/04 10:57:21;;;;;;;2.30;0.88;;;23.80;54.90;;;;;;4491582;32;20380;-67
2022/07/04 10:59:53;;;;;;;7.95;1.02;;;23.80;54.80;;;;;;4491755;32;20073;-67
2022/07/04 11:02:35;;;;;;;3.60;0.80;;;23.80;55.00;;;;;;4491782;32;20407;-68
2022/07/04 11:05:05;;;;;;;4.53;1.00;;;23.90;55.20;;;;;;4491830;32;20711;-68
2022/07/04 11:07:37;;;;;;;5.28;0.95;;;23.80;55.20;;;;;;4492133;32;20109;-68
2022/07/04 11:10:21;;;;;;;1.40;0.70;;;23.80;55.00;;;;;;4491839;32;20176;-68
2022/07/04 11:12:53;;;;;;;4.07;0.90;;;23.90;54.60;;;;;;4491799;32;20081;-68
2022/07/04 11:15:41;;;;;;;2.72;0.70;;;23.80;54.10;;;;;;4491552;32;20077;-68
2022/07/04 11:18:14;;;;;;;4.78;0.60;;;23.90;53.60;;;;;;4484031;32;20497;-67
2022/07/04 11:20:47;;;;;;;3.33;0.63;;;23.80;53.50;;;;;;4491741;32;20611;-67
2022/07/04 11:23:15;;;;;;;2.97;0.70;;;23.90;53.40;;;;;;4491424;32;20088;-68
2022/07/04 11:25:44;;;;;;;1.73;0.75;;;23.90;53.50;;;;;;4491420;32;20537;-67
2022/07/04 11:28:37;;;;;;;4.75;0.80;;;23.90;53.60;;;;;;4491632;32;20077;-67
2022/07/04 11:31:03;;;;;;;2.00;0.88;;;23.90;53.40;;;;;;4492028;32;20081;-67
2022/07/04 11:33:32;;;;;;;5.13;0.77;;;23.90;53.50;;;;;;4491642;32;20057;-67
2022/07/04 11:36:15;;;;;;;3.20;1.13;;;23.90;53.50;;;;;;4491219;32;20096;-68
2022/07/04 11:38:58;;;;;;;2.53;0.95;;;23.90;53.70;;;;;;4491729;32;20211;-67
2022/07/04 11:47:14;;;;;;;4.28;1.23;;;24.00;53.90;;;;;;4491291;31;20104;-67
2022/07/04 11:49:51;;;;;;;5.85;1.00;;;24.00;54.00;;;;;;4494363;31;20084;-67
2022/07/04 11:52:20;;;;;;;2.63;1.02;;;24.00;53.90;;;;;;4494397;31;20084;-67
2022/07/04 11:54:47;;;;;;;4.93;1.00;;;24.00;54.00;;;;;;4494281;31;20525;-68
2022/07/04 11:57:16;;;;;;;4.38;0.98;;;23.90;54.10;;;;;;4494122;31;20494;-74
2022/07/04 11:59:43;;;;;;;3.78;0.80;;;24.00;54.00;;;;;;4494416;31;20065;-68
2022/07/04 12:02:13;;;;;;;3.92;1.10;;;24.00;54.00;;;;;;4494113;31;20096;-66
2022/07/04 12:04:41;;;;;;;5.30;1.10;;;23.90;54.10;;;;;;4494127;31;20461;-66
2022/07/04 12:07:12;;;;;;;6.05;0.60;;;23.90;54.10;;;;;;4494309;31;20081;-67
2022/07/04 12:09:38;;;;;;;3.00;0.93;;;24.00;54.30;;;;;;4494083;31;20193;-67
2022/07/04 12:12:04;;;;;;;3.10;1.13;;;24.00;54.30;;;;;;4494148;31;20088;-67
2022/07/04 12:14:30;;;;;;;6.40;1.40;;;24.00;54.30;;;;;;4493736;31;20095;-67
2022/07/04 12:17:36;;;;;;;4.05;0.90;;;24.00;54.40;;;;;;4493749;31;20065;-67
2022/07/04 12:20:13;;;;;;;3.13;0.90;;;24.00;54.30;;;;;;4444674;32;20248;-67
2022/07/04 12:22:49;;;;;;;4.78;1.02;;;24.00;54.30;;;;;;4488814;31;20089;-68
2022/07/04 12:25:28;;;;;;;2.78;0.80;;;24.00;54.30;;;;;;4494004;31;20061;-72
2022/07/04 12:28:14;;;;;;;3.05;0.73;;;24.00;54.40;;;;;;4494220;31;20166;-67
2022/07/04 12:30:52;;;;;;;3.28;0.80;;;24.00;54.70;;;;;;4494008;31;20089;-69
2022/07/04 12:33:22;;;;;;;4.80;1.13;;;24.00;54.70;;;;;;4493872;31;20067;-67
2022/07/04 12:35:58;;;;;;;4.10;0.93;;;24.00;54.80;;;;;;4493772;31;20096;-68
2022/07/04 12:38:27;;;;;;;3.45;0.88;;;24.00;55.00;;;;;;4493776;31;20120;-68
2022/07/04 12:40:57;;;;;;;1.92;0.80;;;24.00;54.90;;;;;;4493663;31;20092;-67
2022/07/04 12:43:43;;;;;;;1.60;0.77;;;24.00;54.90;;;;;;4493769;31;20069;-68
2022/07/04 12:46:25;;;;;;;2.45;0.93;;;24.00;54.90;;;;;;4492852;31;20080;-68
2022/07/04 12:48:53;;;;;;;2.90;0.70;;;24.10;54.70;;;;;;4493075;31;20069;-67
2022/07/04 12:51:27;;;;;;;3.10;0.70;;;24.10;54.70;;;;;;4493501;31;20165;-67
2022/07/04 12:53:56;;;;;;;3.55;0.65;;;24.10;54.50;;;;;;4492547;31;20113;-71
2022/07/04 12:56:32;;;;;;;3.72;0.90;;;24.10;54.60;;;;;;4493348;31;20088;-67
2022/07/04 12:59:01;;;;;;;2.47;0.98;;;24.10;54.60;;;;;;4493096;31;20088;-68
2022/07/04 13:01:27;;;;;;;4.68;0.70;;;24.10;55.50;;;;;;4493150;31;20077;-67
2022/07/04 13:03:53;;;;;;;3.75;0.80;;;24.10;54.70;;;;;;4493285;31;20113;-67
2022/07/04 13:06:19;;;;;;;1.95;0.80;;;24.10;54.80;;;;;;4493478;31;20131;-67
2022/07/04 13:08:45;;;;;;;2.92;0.95;;;24.10;54.90;;;;;;4493350;31;20084;-68